Time;durP1;ratioP1;P1;durP2;ratioP2;P2;SDS_P1;SDS_P2;PMS_P1;PMS_P2;Temp;Humidity;BMP_temperature;BMP_pressure;BME280_temperature;BME280_humidity;BME280_pressure;Samples;Min_cycle;Max_cycle;Signal;HPM_P1;HPM_P2
2024/04/20 00:01:12;;;;;;;9.40;7.73;;;5.20;1.00;;;;;;5493601;26;20799;-64
2024/04/20 00:03:41;;;;;;;8.80;7.70;;;5.10;99.90;;;;;;5493715;26;20460;-64
2024/04/20 00:06:10;;;;;;;10.77;8.60;;;5.20;1.00;;;;;;5493582;26;20448;-64
2024/04/20 00:08:39;;;;;;;11.07;7.80;;;5.10;99.90;;;;;;5493402;26;20397;-64
2024/04/20 00:11:09;;;;;;;10.20;8.23;;;5.10;99.90;;;;;;5493698;26;20393;-64
2024/04/20 00:13:39;;;;;;;8.87;7.97;;;5.10;99.90;;;;;;5493695;26;20890;-64
2024/04/20 00:16:11;;;;;;;9.70;7.83;;;5.20;99.90;;;;;;5493862;26;20453;-64
2024/04/20 00:18:40;;;;;;;10.20;7.90;;;5.20;99.90;;;;;;5493590;26;20393;-65
2024/04/20 00:21:09;;;;;;;11.43;7.27;;;5.20;1.00;;;;;;5493495;26;20501;-64
2024/04/20 00:23:38;;;;;;;13.30;11.00;;;5.20;1.00;;;;;;5493061;26;20843;-64
2024/04/20 00:26:07;;;;;;;11.00;8.07;;;5.30;99.90;;;;;;5493407;26;20427;-64
2024/04/20 00:28:36;;;;;;;10.00;7.80;;;5.20;99.90;;;;;;5493574;26;20455;-64
2024/04/20 00:31:06;;;;;;;10.37;7.90;;;5.20;99.90;;;;;;5494024;26;20442;-64
2024/04/20 00:33:37;;;;;;;10.73;7.57;;;5.20;99.90;;;;;;5493237;26;20500;-64
2024/04/20 00:36:08;;;;;;;8.47;7.23;;;5.20;99.90;;;;;;5493222;26;20389;-64
2024/04/20 00:38:36;;;;;;;9.23;7.97;;;5.20;99.90;;;;;;5492999;26;20466;-64
2024/04/20 00:41:06;;;;;;;12.60;7.80;;;5.20;1.00;;;;;;5494695;26;20452;-64
2024/04/20 00:43:34;;;;;;;12.07;8.00;;;5.20;99.90;;;;;;5493454;26;20838;-64
2024/04/20 00:46:08;;;;;;;10.40;7.17;;;5.20;99.90;;;;;;5493267;26;20428;-64
2024/04/20 00:48:41;;;;;;;10.00;7.57;;;5.20;99.90;;;;;;5493448;26;20818;-64
2024/04/20 00:51:10;;;;;;;11.10;8.13;;;5.20;1.00;;;;;;5493702;26;20449;-64
2024/04/20 00:53:39;;;;;;;9.63;7.17;;;5.20;99.90;;;;;;5493314;26;20778;-64
2024/04/20 00:56:09;;;;;;;14.40;8.00;;;5.20;99.90;;;;;;5493124;26;20497;-64
2024/04/20 00:58:39;;;;;;;19.73;9.40;;;5.20;99.90;;;;;;5492656;26;20456;-64
2024/04/20 01:01:08;;;;;;;9.90;7.40;;;5.10;99.90;;;;;;5493366;26;20443;-64
2024/04/20 01:03:40;;;;;;;12.07;8.60;;;5.10;1.00;;;;;;5495155;26;20441;-64
2024/04/20 01:06:09;;;;;;;11.63;9.47;;;5.10;99.90;;;;;;5494314;26;20401;-67
2024/04/20 01:08:38;;;;;;;12.80;9.10;;;5.00;99.90;;;;;;5493515;26;20467;-64
2024/04/20 01:11:07;;;;;;;11.40;9.13;;;5.00;99.90;;;;;;5493317;26;20497;-64
2024/04/20 01:13:36;;;;;;;13.30;10.13;;;5.00;99.90;;;;;;5494550;26;20504;-64
2024/04/20 01:16:05;;;;;;;12.23;9.97;;;5.00;99.90;;;;;;5494547;26;20934;-64
2024/04/20 01:18:34;;;;;;;12.87;9.00;;;5.00;99.90;;;;;;5495149;26;20456;-64
2024/04/20 01:21:07;;;;;;;13.17;9.40;;;5.00;99.90;;;;;;5494374;26;20871;-65
2024/04/20 01:23:36;;;;;;;15.13;10.77;;;4.90;99.90;;;;;;5494229;26;20448;-64
2024/04/20 01:26:08;;;;;;;10.63;9.60;;;4.90;99.90;;;;;;5492953;26;20498;-64
2024/04/20 01:28:35;;;;;;;11.20;9.97;;;4.80;99.90;;;;;;5492096;26;20900;-64
2024/04/20 01:31:04;;;;;;;12.67;11.37;;;4.80;99.90;;;;;;5491945;26;20894;-64
2024/04/20 01:33:33;;;;;;;15.20;11.20;;;4.80;99.90;;;;;;5492192;26;20445;-64
2024/04/20 01:36:02;;;;;;;15.60;11.57;;;4.90;99.90;;;;;;5492670;26;20484;-64
2024/04/20 01:38:30;;;;;;;15.77;10.90;;;4.80;99.90;;;;;;5491650;26;20696;-64
2024/04/20 01:40:59;;;;;;;15.07;10.20;;;4.80;1.00;;;;;;5492062;26;20501;-64
2024/04/20 01:43:31;;;;;;;11.90;10.67;;;4.80;1.00;;;;;;5492994;26;20456;-64
2024/04/20 01:46:00;;;;;;;18.03;11.30;;;4.80;1.00;;;;;;5491958;26;20893;-64
2024/04/20 01:48:28;;;;;;;14.17;12.57;;;4.80;1.00;;;;;;5491695;26;20460;-64
2024/04/20 01:50:57;;;;;;;17.47;11.83;;;4.80;1.00;;;;;;5491540;26;20456;-64
2024/04/20 01:53:26;;;;;;;14.73;11.90;;;4.80;1.00;;;;;;5491824;26;20452;-64
2024/04/20 01:55:55;;;;;;;16.63;12.37;;;4.80;99.90;;;;;;5491957;26;20504;-64
2024/04/20 01:58:24;;;;;;;18.70;11.83;;;4.80;1.00;;;;;;5492651;26;20461;-64
2024/04/20 02:00:55;;;;;;;21.17;11.83;;;4.80;1.00;;;;;;5491457;26;20385;-64
2024/04/20 02:03:24;;;;;;;17.63;11.70;;;4.80;1.00;;;;;;5492085;26;20455;-64
2024/04/20 02:05:53;;;;;;;18.20;12.10;;;4.70;1.00;;;;;;5492251;26;20460;-64
2024/04/20 02:08:22;;;;;;;13.03;11.63;;;4.70;99.90;;;;;;5492191;26;20389;-64
2024/04/20 02:10:51;;;;;;;14.10;12.03;;;4.70;1.00;;;;;;5491419;26;20444;-64
2024/04/20 02:13:20;;;;;;;16.50;11.93;;;4.70;1.00;;;;;;5490848;26;20456;-63
2024/04/20 02:15:48;;;;;;;15.40;11.53;;;4.70;5.30;;;;;;5491822;26;20496;-64
2024/04/20 02:18:20;;;;;;;14.60;12.93;;;4.70;1.00;;;;;;5494295;26;20456;-64
2024/04/20 02:20:49;;;;;;;15.40;11.67;;;4.70;3.60;;;;;;5495096;26;20733;-64
2024/04/20 02:23:18;;;;;;;14.70;11.63;;;4.70;14.80;;;;;;5495709;26;20953;-64
2024/04/20 02:25:47;;;;;;;19.60;12.33;;;4.70;13.20;;;;;;5494843;26;20447;-64
2024/04/20 02:28:15;;;;;;;16.70;12.53;;;4.60;1.00;;;;;;5494695;26;20443;-64
2024/04/20 02:30:44;;;;;;;18.47;12.80;;;4.70;99.90;;;;;;5494602;26;20393;-64
2024/04/20 02:33:13;;;;;;;15.53;12.40;;;4.60;99.90;;;;;;5495142;26;20590;-64
2024/04/20 02:35:45;;;;;;;20.73;12.63;;;4.70;46.80;;;;;;5522549;26;20570;-64
2024/04/20 02:38:14;;;;;;;23.80;14.50;;;4.60;1.00;;;;;;5531332;25;20502;-64
2024/04/20 02:40:42;;;;;;;14.00;12.13;;;4.70;1.00;;;;;;5531239;25;20447;-64
2024/04/20 02:43:09;;;;;;;22.93;14.63;;;4.70;2.40;;;;;;5531619;25;20447;-64
2024/04/20 02:45:37;;;;;;;19.80;13.47;;;4.70;61.50;;;;;;5531446;25;20400;-64
2024/04/20 02:48:07;;;;;;;16.80;12.77;;;4.70;19.00;;;;;;5531298;25;20445;-64
2024/04/20 02:50:36;;;;;;;19.60;13.50;;;4.70;83.10;;;;;;5531481;25;20402;-64
2024/04/20 02:53:07;;;;;;;16.63;12.80;;;4.80;99.90;;;;;;5531002;25;20939;-64
2024/04/20 02:55:36;;;;;;;15.73;13.80;;;4.80;80.40;;;;;;5531108;25;20392;-63
2024/04/20 02:58:05;;;;;;;16.80;13.70;;;4.70;60.80;;;;;;5531424;25;20450;-63
2024/04/20 03:00:31;;;;;;;23.67;15.40;;;4.80;99.90;;;;;;5530943;25;20401;-64
2024/04/20 03:03:00;;;;;;;15.80;14.10;;;4.70;99.90;;;;;;5531243;25;20392;-64
2024/04/20 03:05:29;;;;;;;18.07;14.17;;;4.70;98.30;;;;;;5531280;25;20400;-64
2024/04/20 03:07:58;;;;;;;15.33;13.53;;;4.70;99.90;;;;;;5531175;25;20471;-64
2024/04/20 03:10:29;;;;;;;16.83;12.67;;;4.60;41.20;;;;;;5529749;25;20896;-64
2024/04/20 03:12:58;;;;;;;17.23;13.20;;;4.60;85.20;;;;;;5531494;25;20451;-63
2024/04/20 03:15:27;;;;;;;17.37;13.07;;;4.70;57.40;;;;;;5531172;25;20507;-63
2024/04/20 03:17:56;;;;;;;16.57;13.70;;;4.70;1.00;;;;;;5530877;25;20447;-64
2024/04/20 03:20:25;;;;;;;16.30;12.63;;;4.70;99.90;;;;;;5531134;25;20954;-63
2024/04/20 03:22:51;;;;;;;14.00;12.60;;;4.60;51.70;;;;;;5530672;25;20763;-64
2024/04/20 03:25:20;;;;;;;20.17;13.10;;;4.60;1.00;;;;;;5530540;25;20501;-64
2024/04/20 03:27:52;;;;;;;19.47;12.57;;;4.60;17.70;;;;;;5529833;25;20428;-64
2024/04/20 03:30:21;;;;;;;20.60;13.97;;;4.70;99.90;;;;;;5530272;25;20801;-64
2024/04/20 03:32:51;;;;;;;17.50;13.60;;;4.70;99.90;;;;;;5530603;25;20384;-64
2024/04/20 03:35:20;;;;;;;19.43;13.43;;;4.70;97.60;;;;;;5530994;25;20392;-64
2024/04/20 03:37:49;;;;;;;15.53;13.40;;;4.70;99.90;;;;;;5530434;25;20408;-64
2024/04/20 03:40:18;;;;;;;16.93;13.40;;;4.70;1.00;;;;;;5529542;25;20471;-64
2024/04/20 03:42:46;;;;;;;17.23;14.30;;;4.70;40.10;;;;;;5530674;25;20388;-63
2024/04/20 03:45:18;;;;;;;13.90;12.13;;;4.70;13.30;;;;;;5530959;25;20760;-64
2024/04/20 03:47:47;;;;;;;16.23;11.53;;;4.80;1.00;;;;;;5532073;25;20364;-64
2024/04/20 03:50:16;;;;;;;21.07;14.17;;;4.70;5.00;;;;;;5530904;25;20392;-63
2024/04/20 03:52:48;;;;;;;16.43;11.20;;;4.70;69.60;;;;;;5530222;25;20392;-63
2024/04/20 03:55:18;;;;;;;15.43;12.13;;;4.70;1.00;;;;;;5530594;25;20431;-63
2024/04/20 03:57:47;;;;;;;14.10;11.13;;;4.70;1.00;;;;;;5528980;25;20392;-63
2024/04/20 04:00:19;;;;;;;18.47;11.73;;;4.70;23.10;;;;;;5527755;25;20813;-63
2024/04/20 04:02:48;;;;;;;13.43;12.03;;;4.70;1.00;;;;;;5527013;25;20491;-64
2024/04/20 04:05:17;;;;;;;13.57;11.00;;;4.80;73.30;;;;;;5527917;25;20447;-63
2024/04/20 04:07:45;;;;;;;15.73;11.20;;;4.70;1.00;;;;;;5529347;25;20447;-64
2024/04/20 04:10:14;;;;;;;12.80;11.13;;;4.70;1.00;;;;;;5529701;25;21036;-63
2024/04/20 04:12:43;;;;;;;17.20;11.03;;;4.70;47.30;;;;;;5529379;25;20497;-64
2024/04/20 04:15:13;;;;;;;17.00;12.50;;;4.70;1.00;;;;;;5529648;25;20469;-63
2024/04/20 04:17:44;;;;;;;13.63;10.13;;;4.70;1.00;;;;;;5529925;25;20436;-63
2024/04/20 04:20:13;;;;;;;11.47;9.67;;;4.70;1.00;;;;;;5529825;25;20391;-63
2024/04/20 04:22:42;;;;;;;12.37;10.40;;;4.70;1.00;;;;;;5529481;25;20430;-63
2024/04/20 04:25:11;;;;;;;14.57;11.13;;;4.60;1.00;;;;;;5529481;25;20392;-63
2024/04/20 04:27:39;;;;;;;16.60;10.40;;;4.70;1.00;;;;;;5529642;25;20487;-64
2024/04/20 04:30:10;;;;;;;16.20;11.03;;;4.70;1.00;;;;;;5529699;25;20455;-64
2024/04/20 04:32:38;;;;;;;11.97;10.07;;;4.70;1.00;;;;;;5529092;25;20723;-64
2024/04/20 04:35:10;;;;;;;11.40;10.20;;;4.70;1.00;;;;;;5528998;25;20434;-63
2024/04/20 04:37:39;;;;;;;14.60;10.67;;;4.80;11.00;;;;;;5528755;25;20458;-63
2024/04/20 04:40:09;;;;;;;11.27;9.93;;;4.90;1.00;;;;;;5529011;25;20501;-63
2024/04/20 04:42:37;;;;;;;15.23;10.73;;;4.80;75.70;;;;;;5528787;25;20454;-63
2024/04/20 04:45:07;;;;;;;13.10;9.83;;;4.90;1.00;;;;;;5529026;25;20392;-63
2024/04/20 04:47:36;;;;;;;17.13;8.77;;;4.90;1.00;;;;;;5529056;25;20400;-63
2024/04/20 04:50:05;;;;;;;11.93;9.67;;;4.90;1.00;;;;;;5528750;25;20441;-63
2024/04/20 04:52:36;;;;;;;10.00;7.93;;;4.90;16.30;;;;;;5529011;25;20803;-63
2024/04/20 04:55:06;;;;;;;9.67;8.10;;;4.90;99.90;;;;;;5528554;25;20450;-64
2024/04/20 04:57:35;;;;;;;10.03;9.03;;;4.90;5.40;;;;;;5528953;25;20923;-63
2024/04/20 05:00:03;;;;;;;11.13;8.40;;;4.90;82.60;;;;;;5529340;25;20388;-63
2024/04/20 05:02:32;;;;;;;9.07;7.50;;;4.90;96.20;;;;;;5529161;25;20897;-64
2024/04/20 05:05:01;;;;;;;8.80;7.40;;;4.90;1.00;;;;;;5529197;25;20447;-63
2024/04/20 05:07:30;;;;;;;10.97;7.67;;;4.90;66.10;;;;;;5529086;25;20392;-63
2024/04/20 05:10:02;;;;;;;7.73;6.50;;;4.90;16.20;;;;;;5529373;25;20448;-63
2024/04/20 05:12:31;;;;;;;11.07;7.90;;;5.00;20.30;;;;;;5529166;25;20520;-63
2024/04/20 05:15:00;;;;;;;10.57;6.87;;;5.00;54.40;;;;;;5528702;25;20495;-63
2024/04/20 05:17:29;;;;;;;8.20;6.27;;;5.10;7.10;;;;;;5528502;25;20507;-63
2024/04/20 05:19:59;;;;;;;6.90;6.00;;;5.10;1.00;;;;;;5529340;25;20427;-63
2024/04/20 05:22:28;;;;;;;7.40;6.00;;;5.10;1.00;;;;;;5528708;25;20384;-63
2024/04/20 05:24:56;;;;;;;9.50;5.80;;;5.10;1.00;;;;;;5528719;25;20956;-63
2024/04/20 05:27:28;;;;;;;8.23;5.30;;;5.10;1.00;;;;;;5527161;25;20463;-63
2024/04/20 05:29:57;;;;;;;9.47;5.10;;;5.10;1.00;;;;;;5528982;25;20447;-63
2024/04/20 05:32:26;;;;;;;8.67;5.87;;;5.20;1.00;;;;;;5528656;25;20399;-63
2024/04/20 05:34:54;;;;;;;7.37;5.30;;;5.10;99.90;;;;;;5528089;25;20436;-64
2024/04/20 05:37:23;;;;;;;7.90;5.13;;;5.20;1.00;;;;;;5526739;25;20588;-65
2024/04/20 05:39:50;;;;;;;8.63;5.67;;;5.10;99.90;;;;;;5528407;25;20384;-65
2024/04/20 05:42:18;;;;;;;7.80;4.93;;;5.10;99.90;;;;;;5527636;25;20400;-64
2024/04/20 05:44:51;;;;;;;7.90;5.60;;;5.10;99.90;;;;;;5527675;25;20554;-64
2024/04/20 05:47:20;;;;;;;5.60;4.40;;;5.10;99.90;;;;;;5528079;25;20500;-64
2024/04/20 05:49:49;;;;;;;6.53;5.20;;;5.20;99.90;;;;;;5528080;25;20672;-64
2024/04/20 05:52:18;;;;;;;6.27;5.67;;;5.20;99.90;;;;;;5529733;25;20489;-64
2024/04/20 05:54:47;;;;;;;7.13;5.43;;;5.20;99.90;;;;;;5531220;25;20524;-64
2024/04/20 05:57:16;;;;;;;7.00;5.20;;;5.20;99.90;;;;;;5531516;25;20444;-65
2024/04/20 05:59:44;;;;;;;5.73;4.93;;;5.20;1.00;;;;;;5531625;25;20558;-65
2024/04/20 06:02:16;;;;;;;7.40;5.30;;;5.30;1.00;;;;;;5531605;25;20724;-65
2024/04/20 06:04:45;;;;;;;5.57;5.07;;;5.30;1.00;;;;;;5531324;25;20398;-65
2024/04/20 06:07:15;;;;;;;4.93;4.43;;;5.20;1.00;;;;;;5531356;25;20444;-65
2024/04/20 06:09:44;;;;;;;10.23;5.70;;;5.20;1.00;;;;;;5531474;25;20473;-65
2024/04/20 06:12:13;;;;;;;7.03;5.37;;;5.20;99.90;;;;;;5531582;25;20385;-65
2024/04/20 06:14:42;;;;;;;7.20;5.60;;;5.30;1.00;;;;;;5531142;25;20395;-65
2024/04/20 06:17:11;;;;;;;9.70;6.13;;;5.40;1.00;;;;;;5531367;25;20489;-65
2024/04/20 06:19:40;;;;;;;8.77;5.93;;;5.40;1.00;;;;;;5531497;25;20498;-65
2024/04/20 06:22:09;;;;;;;8.80;6.43;;;5.50;1.00;;;;;;5531394;25;20388;-66
2024/04/20 06:24:40;;;;;;;10.03;6.90;;;5.40;99.90;;;;;;5531028;25;20450;-67
2024/04/20 06:27:09;;;;;;;11.43;7.23;;;5.40;1.00;;;;;;5531107;25;20439;-67
2024/04/20 06:29:38;;;;;;;9.90;7.20;;;5.50;1.00;;;;;;5531236;25;20442;-67
2024/04/20 06:32:07;;;;;;;10.17;7.40;;;5.60;1.00;;;;;;5531304;25;20950;-66
2024/04/20 06:34:36;;;;;;;10.50;7.07;;;5.50;99.90;;;;;;5531335;25;20392;-66
2024/04/20 06:37:09;;;;;;;8.70;6.90;;;5.50;99.90;;;;;;5530747;25;20411;-65
2024/04/20 06:39:38;;;;;;;9.60;6.67;;;5.60;99.90;;;;;;5530039;25;20454;-65
2024/04/20 06:42:08;;;;;;;9.03;6.87;;;5.60;99.90;;;;;;5530653;25;20447;-65
2024/04/20 06:44:37;;;;;;;8.23;7.43;;;5.70;99.90;;;;;;5531051;25;20396;-65
2024/04/20 06:47:06;;;;;;;11.57;7.10;;;5.60;99.90;;;;;;5530805;25;20389;-65
2024/04/20 06:49:35;;;;;;;8.40;6.80;;;5.60;99.90;;;;;;5530858;25;20960;-65
2024/04/20 06:52:08;;;;;;;8.70;6.97;;;5.60;99.90;;;;;;5530934;25;20503;-65
2024/04/20 06:54:37;;;;;;;10.90;7.77;;;5.60;99.90;;;;;;5530217;25;20703;-65
2024/04/20 06:57:06;;;;;;;11.00;7.77;;;5.70;64.80;;;;;;5527752;25;20458;-65
2024/04/20 06:59:35;;;;;;;9.60;6.93;;;5.80;99.90;;;;;;5527816;25;20455;-64
2024/04/20 07:02:04;;;;;;;10.17;7.43;;;6.00;99.90;;;;;;5527971;25;20454;-64
2024/04/20 07:04:33;;;;;;;9.63;7.10;;;5.90;42.40;;;;;;5528120;25;20998;-65
2024/04/20 07:07:02;;;;;;;12.60;7.60;;;5.90;19.80;;;;;;5528252;25;20436;-65
2024/04/20 07:09:33;;;;;;;9.90;7.83;;;5.80;55.30;;;;;;5528061;25;20459;-64
2024/04/20 07:12:02;;;;;;;10.23;8.23;;;5.70;1.00;;;;;;5530697;25;20450;-64
2024/04/20 07:14:31;;;;;;;9.60;8.03;;;5.70;99.90;;;;;;5530686;25;20836;-65
2024/04/20 07:17:00;;;;;;;8.40;7.27;;;5.80;87.50;;;;;;5530327;25;20395;-66
2024/04/20 07:19:30;;;;;;;6.93;6.17;;;5.70;99.90;;;;;;5530434;25;20510;-66
2024/04/20 07:21:59;;;;;;;8.60;6.20;;;5.60;99.90;;;;;;5530542;25;20846;-65
2024/04/20 07:24:28;;;;;;;9.90;5.27;;;5.50;99.90;;;;;;5530523;25;20745;-64
2024/04/20 07:27:00;;;;;;;6.00;5.13;;;5.50;99.90;;;;;;5530145;25;20459;-64
2024/04/20 07:29:30;;;;;;;5.30;3.80;;;5.60;99.90;;;;;;5530365;25;20447;-64
2024/04/20 07:31:59;;;;;;;4.20;3.23;;;5.60;1.00;;;;;;5530396;25;20499;-65
2024/04/20 07:34:31;;;;;;;7.20;3.10;;;5.50;1.00;;;;;;5530309;25;20499;-65
2024/04/20 07:37:00;;;;;;;5.27;3.03;;;5.60;99.90;;;;;;5529771;25;20508;-66
2024/04/20 07:39:29;;;;;;;4.63;2.83;;;5.60;1.00;;;;;;5530123;25;20458;-66
2024/04/20 07:42:02;;;;;;;6.70;3.73;;;5.60;99.90;;;;;;5530177;25;21006;-66
2024/04/20 07:44:31;;;;;;;4.60;3.10;;;5.60;1.00;;;;;;5530283;25;20441;-67
2024/04/20 07:47:02;;;;;;;6.10;3.40;;;5.60;1.00;;;;;;5529386;25;20455;-66
2024/04/20 07:49:31;;;;;;;4.03;2.83;;;5.70;1.00;;;;;;5526999;25;20518;-67
2024/04/20 07:52:00;;;;;;;3.97;2.90;;;5.80;99.90;;;;;;5530091;25;20451;-67
2024/04/20 07:54:29;;;;;;;3.67;3.27;;;6.10;1.00;;;;;;5529737;25;20446;-67
2024/04/20 07:57:01;;;;;;;6.07;3.07;;;6.50;99.90;;;;;;5529925;25;20392;-67
2024/04/20 07:59:30;;;;;;;6.90;3.20;;;6.60;99.90;;;;;;5529899;25;20392;-67
2024/04/20 08:01:59;;;;;;;3.93;2.77;;;6.40;72.50;;;;;;5529881;25;20396;-67
2024/04/20 08:04:29;;;;;;;4.10;2.47;;;6.40;1.00;;;;;;5529935;25;20452;-66
2024/04/20 08:06:58;;;;;;;5.10;2.77;;;6.30;1.00;;;;;;5529729;25;20481;-67
2024/04/20 08:09:27;;;;;;;5.40;3.27;;;6.40;30.90;;;;;;5528611;25;20392;-66
2024/04/20 08:11:56;;;;;;;3.90;3.27;;;6.50;44.10;;;;;;5528952;25;20561;-67
2024/04/20 08:14:28;;;;;;;5.83;3.20;;;6.50;99.90;;;;;;5528936;25;20454;-66
2024/04/20 08:16:57;;;;;;;4.73;2.93;;;6.30;92.50;;;;;;5529032;25;20393;-66
2024/04/20 08:19:27;;;;;;;5.10;3.30;;;6.40;1.00;;;;;;5527638;25;20400;-66
2024/04/20 08:21:56;;;;;;;4.03;2.90;;;6.40;99.90;;;;;;5529634;25;20503;-66
2024/04/20 08:24:25;;;;;;;4.70;3.57;;;6.50;99.90;;;;;;5529211;25;21048;-66
2024/04/20 08:26:55;;;;;;;4.60;3.97;;;6.40;99.90;;;;;;5529021;25;20455;-66
2024/04/20 08:29:27;;;;;;;5.60;4.63;;;6.50;99.90;;;;;;5529451;25;20507;-66
2024/04/20 08:31:56;;;;;;;6.77;4.57;;;6.60;99.90;;;;;;5529552;25;20392;-65
2024/04/20 08:34:25;;;;;;;5.67;4.83;;;6.30;99.90;;;;;;5529529;25;20821;-66
2024/04/20 08:36:54;;;;;;;5.43;4.80;;;6.20;99.90;;;;;;5527957;25;20711;-65
2024/04/20 08:39:23;;;;;;;7.60;5.63;;;6.30;99.90;;;;;;5526229;25;20450;-65
2024/04/20 08:42:05;;;;;;;6.43;5.30;;;6.40;99.90;;;;;;5526371;25;20446;-65
2024/04/20 08:44:38;;;;;;;7.03;5.47;;;6.20;99.90;;;;;;5526300;25;20498;-65
2024/04/20 08:47:11;;;;;;;7.53;6.40;;;6.20;99.90;;;;;;5526229;25;20462;-65
2024/04/20 08:49:42;;;;;;;8.40;6.50;;;6.20;99.90;;;;;;5526346;25;20404;-65
2024/04/20 08:52:13;;;;;;;6.83;6.23;;;6.20;99.90;;;;;;5527312;25;20448;-65
2024/04/20 08:54:43;;;;;;;5.70;4.90;;;6.10;99.90;;;;;;5528872;25;20813;-65
2024/04/20 08:57:14;;;;;;;8.83;5.90;;;6.00;99.90;;;;;;5528720;25;20812;-65
2024/04/20 08:59:47;;;;;;;6.83;6.17;;;6.10;99.90;;;;;;5529044;25;20447;-65
2024/04/20 09:02:20;;;;;;;5.40;4.90;;;6.10;1.00;;;;;;5528935;25;20515;-66
2024/04/20 09:04:50;;;;;;;5.90;4.60;;;6.00;99.90;;;;;;5528807;25;20908;-65
2024/04/20 09:07:20;;;;;;;5.80;4.70;;;5.80;1.00;;;;;;5528769;25;20530;-66
2024/04/20 09:09:50;;;;;;;5.60;4.63;;;5.70;50.80;;;;;;5529083;25;20967;-66
2024/04/20 09:12:19;;;;;;;5.00;4.20;;;5.80;99.90;;;;;;5528558;25;20392;-65
2024/04/20 09:14:51;;;;;;;7.00;4.50;;;5.90;99.90;;;;;;5528559;25;20501;-64
2024/04/20 09:17:20;;;;;;;9.53;5.40;;;5.80;99.90;;;;;;5506563;26;20472;-65
2024/04/20 09:19:52;;;;;;;5.90;5.40;;;5.90;99.90;;;;;;5491564;26;20447;-66
2024/04/20 09:22:21;;;;;;;6.10;5.17;;;5.80;99.90;;;;;;5491968;26;20448;-66
2024/04/20 09:24:50;;;;;;;6.67;5.97;;;5.80;1.00;;;;;;5490820;26;20436;-66
2024/04/20 09:27:19;;;;;;;7.13;6.40;;;6.00;1.00;;;;;;5493241;26;20452;-67
2024/04/20 09:29:51;;;;;;;9.10;5.90;;;5.90;1.00;;;;;;5495005;26;20483;-67
2024/04/20 09:32:20;;;;;;;7.50;6.80;;;6.20;1.00;;;;;;5494946;26;20563;-67
2024/04/20 09:34:51;;;;;;;7.73;6.73;;;6.60;1.00;;;;;;5494912;26;20460;-67
2024/04/20 09:37:22;;;;;;;7.00;6.30;;;6.90;1.00;;;;;;5494863;26;20550;-68
2024/04/20 09:39:55;;;;;;;8.30;6.87;;;6.90;1.00;;;;;;5494998;26;20895;-68
2024/04/20 09:42:25;;;;;;;7.20;6.50;;;7.00;1.00;;;;;;5494918;26;20468;-66
2024/04/20 09:44:57;;;;;;;8.20;6.03;;;7.30;1.00;;;;;;5495009;26;20503;-66
2024/04/20 09:47:28;;;;;;;7.57;6.60;;;7.50;99.90;;;;;;5495146;26;20943;-65
2024/04/20 09:50:02;;;;;;;7.67;6.50;;;7.60;99.90;;;;;;5495093;26;20393;-66
2024/04/20 09:52:42;;;;;;;7.53;5.70;;;7.90;99.90;;;;;;5493018;26;20460;-65
2024/04/20 09:55:18;;;;;;;5.93;5.43;;;7.90;99.90;;;;;;5494868;26;20464;-65
2024/04/20 09:57:49;;;;;;;6.23;5.53;;;8.10;1.00;;;;;;5494832;26;20817;-65
2024/04/20 10:00:22;;;;;;;8.00;5.53;;;7.90;99.90;;;;;;5494327;26;20965;-64
2024/04/20 10:02:53;;;;;;;7.00;6.10;;;8.00;1.00;;;;;;5494517;26;20378;-64
2024/04/20 10:05:23;;;;;;;7.30;5.20;;;7.80;1.00;;;;;;5494726;26;20491;-65
2024/04/20 10:07:53;;;;;;;4.50;4.10;;;7.70;1.00;;;;;;5494686;26;20499;-66
2024/04/20 10:10:26;;;;;;;3.93;3.50;;;7.50;99.90;;;;;;5494667;26;20452;-67
2024/04/20 10:12:59;;;;;;;4.90;4.07;;;7.20;30.10;;;;;;5494425;26;20725;-67
2024/04/20 10:15:33;;;;;;;5.83;3.50;;;7.50;1.00;;;;;;5494599;26;20424;-66
2024/04/20 10:18:03;;;;;;;5.00;3.90;;;7.90;99.90;;;;;;5494211;26;20774;-65
2024/04/20 10:20:35;;;;;;;5.73;5.20;;;8.10;99.90;;;;;;5493382;26;20461;-64
2024/04/20 10:23:14;;;;;;;5.30;3.90;;;8.10;99.90;;;;;;5511322;26;20516;-65
2024/04/20 10:25:43;;;;;;;4.37;2.97;;;8.50;1.00;;;;;;5527225;25;20564;-65
2024/04/20 10:28:12;;;;;;;5.33;4.47;;;8.00;99.90;;;;;;5528004;25;20423;-65
2024/04/20 10:30:55;;;;;;;4.90;3.40;;;7.90;1.00;;;;;;5528964;25;20514;-65
2024/04/20 10:33:30;;;;;;;8.80;4.10;;;7.50;99.90;;;;;;5527584;25;20511;-64
2024/04/20 10:36:02;;;;;;;5.97;4.00;;;7.30;99.90;;;;;;5530468;25;20705;-64
2024/04/20 10:38:33;;;;;;;4.20;3.70;;;7.40;99.90;;;;;;5530079;25;20479;-64
2024/04/20 10:41:14;;;;;;;8.07;4.30;;;7.50;48.20;;;;;;5531121;25;20502;-63
2024/04/20 10:43:44;;;;;;;7.33;5.60;;;7.80;99.90;;;;;;5531056;25;20442;-62
2024/04/20 10:46:20;;;;;;;4.93;3.30;;;9.20;1.00;;;;;;5530749;25;20450;-63
2024/04/20 10:48:58;;;;;;;4.80;3.60;;;9.30;1.00;;;;;;5530710;25;20447;-62
2024/04/20 10:51:28;;;;;;;5.13;2.90;;;9.70;89.50;;;;;;5531002;25;20740;-62
2024/04/20 10:54:03;;;;;;;7.50;2.57;;;9.60;1.00;;;;;;5531080;25;20403;-62
2024/04/20 10:56:35;;;;;;;5.20;2.93;;;9.40;99.90;;;;;;5531044;25;20450;-62
2024/04/20 10:59:07;;;;;;;4.40;2.63;;;8.50;99.90;;;;;;5530658;25;20822;-64
2024/04/20 11:01:41;;;;;;;4.67;2.40;;;8.10;1.00;;;;;;5530787;25;20530;-65
2024/04/20 11:04:11;;;;;;;5.10;3.10;;;7.70;1.00;;;;;;5530492;25;20439;-65
2024/04/20 11:06:40;;;;;;;7.07;2.63;;;7.30;99.90;;;;;;5529543;25;20490;-66
2024/04/20 11:09:13;;;;;;;3.33;3.00;;;7.20;1.00;;;;;;5530501;25;20567;-66
2024/04/20 11:11:42;;;;;;;3.87;2.80;;;7.70;99.90;;;;;;5530702;25;20450;-68
2024/04/20 11:14:09;;;;;;;4.43;2.57;;;7.60;99.90;;;;;;5530950;25;20928;-65
2024/04/20 11:16:41;;;;;;;3.80;2.20;;;8.10;1.00;;;;;;5530268;25;20923;-65
2024/04/20 11:19:12;;;;;;;3.70;2.00;;;8.50;1.00;;;;;;5528670;25;20494;-65
2024/04/20 11:21:42;;;;;;;7.33;2.70;;;8.80;50.50;;;;;;5530610;25;20438;-63
2024/04/20 11:24:12;;;;;;;3.57;1.97;;;9.50;99.90;;;;;;5530638;25;20959;-63
2024/04/20 11:26:42;;;;;;;2.77;1.93;;;10.00;99.90;;;;;;5530165;25;20392;-63
2024/04/20 11:29:12;;;;;;;3.20;1.63;;;9.90;1.00;;;;;;5530308;25;20447;-62
2024/04/20 11:31:44;;;;;;;3.20;1.70;;;9.60;99.90;;;;;;5529956;25;20475;-61
2024/04/20 11:34:23;;;;;;;4.00;1.90;;;9.50;1.00;;;;;;5530377;25;20447;-62
2024/04/20 11:36:53;;;;;;;3.43;2.20;;;9.50;1.00;;;;;;5529865;25;20444;-61
2024/04/20 11:39:22;;;;;;;4.93;2.00;;;10.20;99.90;;;;;;5530543;25;20508;-61
2024/04/20 11:41:52;;;;;;;8.83;2.50;;;10.40;1.00;;;;;;5530268;25;20688;-61
2024/04/20 11:44:21;;;;;;;6.20;2.93;;;10.80;99.90;;;;;;5530140;25;20577;-61
2024/04/20 11:46:53;;;;;;;3.77;1.90;;;10.10;1.00;;;;;;5529939;25;20454;-62
2024/04/20 11:49:22;;;;;;;3.17;1.70;;;8.70;99.90;;;;;;5528725;25;20436;-62
2024/04/20 11:54:48;;;;;;;2.70;1.50;;;7.40;99.90;;;;;;5532557;26;20528;-64
2024/04/20 11:57:18;;;;;;;2.40;1.30;;;6.60;1.00;;;;;;5529856;25;20494;-64
2024/04/20 11:59:48;;;;;;;2.60;1.43;;;6.70;93.20;;;;;;5529962;25;20499;-64
2024/04/20 12:02:19;;;;;;;2.67;1.57;;;6.30;65.60;;;;;;5529736;25;20447;-65
2024/04/20 12:04:50;;;;;;;2.57;1.70;;;6.20;99.90;;;;;;5529571;25;20474;-64
2024/04/20 12:07:19;;;;;;;4.93;1.80;;;6.60;99.90;;;;;;5529774;25;20451;-65
2024/04/20 12:09:50;;;;;;;3.30;1.77;;;6.90;99.90;;;;;;5529822;25;20816;-65
2024/04/20 12:12:19;;;;;;;2.97;1.70;;;7.20;34.10;;;;;;5529876;25;20503;-65
2024/04/20 12:14:49;;;;;;;4.13;2.10;;;7.50;1.00;;;;;;5526341;25;20840;-65
2024/04/20 12:17:21;;;;;;;4.17;1.60;;;7.90;99.90;;;;;;5528691;25;20431;-65
2024/04/20 12:19:50;;;;;;;4.50;1.80;;;8.80;1.00;;;;;;5529629;25;20514;-64
2024/04/20 12:22:20;;;;;;;5.23;2.03;;;9.40;70.00;;;;;;5529647;25;20446;-64
2024/04/20 12:24:50;;;;;;;4.83;2.23;;;10.10;99.90;;;;;;5529002;25;20911;-65
2024/04/20 12:27:20;;;;;;;4.17;2.00;;;10.10;99.90;;;;;;5528669;25;20943;-63
2024/04/20 12:29:50;;;;;;;4.50;2.23;;;10.10;99.90;;;;;;5529618;25;20880;-62
2024/04/20 12:32:24;;;;;;;5.90;2.00;;;10.10;99.90;;;;;;5529528;25;20960;-63
2024/04/20 12:34:54;;;;;;;4.03;2.00;;;9.50;99.90;;;;;;5529469;25;20501;-66
2024/04/20 12:37:24;;;;;;;3.50;1.83;;;9.30;1.00;;;;;;5527421;25;21104;-67
2024/04/20 12:39:53;;;;;;;6.93;3.00;;;8.80;1.00;;;;;;5526553;25;20555;-65
2024/04/20 12:42:24;;;;;;;6.80;2.60;;;8.30;99.90;;;;;;5526351;25;20873;-65
2024/04/20 12:45:01;;;;;;;3.23;2.23;;;8.70;1.00;;;;;;5525972;25;20903;-66
2024/04/20 12:47:33;;;;;;;4.17;2.87;;;9.40;3.00;;;;;;5525944;25;21123;-65
2024/04/20 12:50:04;;;;;;;6.50;2.80;;;9.70;99.90;;;;;;5527215;25;20494;-64
2024/04/20 12:52:33;;;;;;;2.80;1.77;;;9.20;99.90;;;;;;5528113;25;20455;-66
2024/04/20 12:55:03;;;;;;;2.80;2.00;;;8.70;99.90;;;;;;5528276;25;20392;-64
2024/04/20 12:57:33;;;;;;;3.40;2.50;;;8.40;1.00;;;;;;5527889;25;20495;-65
2024/04/20 13:00:02;;;;;;;3.20;2.00;;;8.30;1.00;;;;;;5528694;25;20400;-66
2024/04/20 13:02:34;;;;;;;3.63;2.20;;;8.40;99.90;;;;;;5529110;25;20785;-66
2024/04/20 13:05:04;;;;;;;4.93;2.47;;;8.90;99.90;;;;;;5528956;25;20458;-66
2024/04/20 13:07:33;;;;;;;5.10;2.30;;;9.50;1.00;;;;;;5528848;25;20396;-66
2024/04/20 13:10:03;;;;;;;3.90;2.40;;;10.10;1.00;;;;;;5528954;25;20455;-66